createdAt,value
2023-08-14T00:01:22.338Z,2.30
2023-08-14T00:03:50.422Z,2.53
2023-08-14T00:06:18.404Z,2.03
2023-08-14T00:08:47.691Z,2.50
2023-08-14T00:11:15.641Z,3.17
2023-08-14T00:13:54.228Z,2.60
2023-08-14T00:16:22.654Z,2.23
2023-08-14T00:18:50.648Z,2.97
2023-08-14T00:21:18.723Z,2.10
2023-08-14T00:23:47.958Z,2.60
2023-08-14T00:26:16.329Z,2.53
2023-08-14T00:28:44.302Z,2.53
2023-08-14T00:31:12.263Z,2.20
2023-08-14T00:33:40.248Z,2.30
2023-08-14T00:36:08.209Z,2.23
2023-08-14T00:38:36.511Z,2.63
2023-08-14T00:41:05.892Z,1.87
2023-08-14T00:43:33.842Z,2.60
2023-08-14T00:46:03.341Z,2.17
2023-08-14T00:48:32.317Z,2.43
2023-08-14T00:51:01.212Z,2.13
2023-08-14T00:53:31.538Z,2.20
2023-08-14T00:56:01.612Z,2.43
2023-08-14T00:58:32.037Z,2.43
2023-08-14T01:01:01.107Z,2.33
2023-08-14T01:03:30.036Z,2.50
2023-08-14T01:05:59.247Z,2.10
2023-08-14T01:08:27.341Z,2.57
2023-08-14T01:11:01.648Z,2.70
2023-08-14T01:13:39.689Z,2.10
2023-08-14T01:16:11.780Z,1.83
2023-08-14T01:18:42.794Z,2.00
2023-08-14T01:21:34.700Z,2.37
2023-08-14T01:24:09.195Z,2.40
2023-08-14T01:26:38.832Z,2.43
2023-08-14T01:29:06.980Z,2.60
2023-08-14T01:31:34.966Z,2.87
2023-08-14T01:34:02.971Z,2.43
2023-08-14T01:36:37.177Z,2.30
2023-08-14T01:39:09.366Z,2.13
2023-08-14T01:41:45.444Z,2.63
2023-08-14T01:44:16.983Z,2.30
2023-08-14T01:46:48.420Z,2.87
2023-08-14T01:49:19.031Z,2.00
2023-08-14T01:51:48.568Z,2.17
2023-08-14T01:54:16.478Z,2.93
2023-08-14T01:56:46.143Z,2.60
2023-08-14T01:59:14.073Z,2.40
2023-08-14T02:01:42.081Z,2.43
2023-08-14T02:04:10.528Z,2.30
2023-08-14T02:06:38.457Z,2.30
2023-08-14T02:09:06.643Z,2.40
2023-08-14T02:11:34.507Z,2.80
2023-08-14T02:14:03.726Z,2.00
2023-08-14T02:16:31.746Z,1.80
2023-08-14T02:18:59.668Z,2.03
2023-08-14T02:21:27.557Z,2.40
2023-08-14T02:23:55.483Z,2.47
2023-08-14T02:26:23.544Z,2.10
2023-08-14T02:28:53.541Z,3.00
2023-08-14T02:31:22.919Z,2.33
2023-08-14T02:33:50.935Z,2.27
2023-08-14T02:36:18.874Z,2.20
2023-08-14T02:38:47.310Z,2.97
2023-08-14T02:41:15.247Z,2.33
2023-08-14T02:43:43.279Z,2.00
2023-08-14T02:46:11.430Z,2.50
2023-08-14T02:48:41.192Z,2.70
2023-08-14T02:51:09.102Z,2.00
2023-08-14T02:53:37.013Z,1.90
2023-08-14T02:56:05.269Z,1.90
2023-08-14T02:58:33.169Z,2.40
2023-08-14T03:01:01.493Z,2.30
2023-08-14T03:03:29.561Z,2.07
2023-08-14T03:06:01.284Z,1.83
2023-08-14T03:08:29.415Z,2.00
2023-08-14T03:10:57.329Z,2.10
2023-08-14T03:13:25.631Z,1.73
2023-08-14T03:15:53.609Z,2.20
2023-08-14T03:18:21.608Z,1.80
2023-08-14T03:20:49.562Z,1.73
2023-08-14T03:23:18.810Z,1.60
2023-08-14T03:25:46.726Z,2.33
2023-08-14T03:28:14.761Z,2.10
2023-08-14T03:30:43.293Z,2.30
2023-08-14T03:33:11.777Z,2.70
2023-08-14T03:35:39.722Z,1.57
2023-08-14T03:38:07.731Z,2.00
2023-08-14T03:40:37.048Z,2.03
2023-08-14T03:43:05.804Z,1.80
2023-08-14T03:45:34.008Z,2.10
2023-08-14T03:48:01.994Z,2.30
2023-08-14T03:50:30.072Z,2.17
2023-08-14T03:52:58.166Z,2.40
2023-08-14T03:55:26.103Z,2.60
2023-08-14T03:57:55.850Z,2.27
2023-08-14T04:00:23.800Z,1.77
2023-08-14T04:02:51.895Z,2.77
2023-08-14T04:05:19.927Z,2.77
2023-08-14T04:07:47.913Z,1.93
2023-08-14T04:10:16.027Z,2.50
2023-08-14T04:12:43.964Z,2.00
2023-08-14T04:15:17.512Z,2.80
2023-08-14T04:17:45.949Z,1.90
2023-08-14T04:20:14.320Z,2.20
2023-08-14T04:22:42.293Z,2.57
2023-08-14T04:25:10.724Z,2.80
2023-08-14T04:27:39.309Z,3.00
2023-08-14T04:30:09.860Z,2.73
2023-08-14T04:32:39.186Z,2.60
2023-08-14T04:35:08.058Z,2.90
2023-08-14T04:37:36.012Z,2.50
2023-08-14T04:40:05.949Z,3.30
2023-08-14T04:42:34.595Z,2.67
2023-08-14T04:45:02.936Z,2.37
2023-08-14T04:47:30.987Z,2.50
2023-08-14T04:50:00.282Z,2.50
2023-08-14T04:52:28.210Z,2.57
2023-08-14T04:54:56.177Z,1.93
2023-08-14T04:57:24.147Z,3.17
2023-08-14T04:59:52.056Z,2.60
2023-08-14T05:02:20.168Z,2.60
2023-08-14T05:04:48.925Z,3.50
2023-08-14T05:07:18.361Z,2.17
2023-08-14T05:09:49.501Z,2.30
2023-08-14T05:12:17.847Z,2.50
2023-08-14T05:14:46.096Z,2.40
2023-08-14T05:17:14.660Z,2.40
2023-08-14T05:19:42.569Z,2.60
2023-08-14T05:22:10.476Z,2.43
2023-08-14T05:24:39.926Z,2.50
2023-08-14T05:27:07.901Z,2.50
2023-08-14T05:29:35.917Z,2.40
2023-08-14T05:32:03.900Z,2.60
2023-08-14T05:34:31.887Z,2.53
2023-08-14T05:36:59.807Z,2.50
2023-08-14T05:39:28.210Z,2.60
2023-08-14T05:41:57.540Z,2.63
2023-08-14T05:44:25.529Z,2.13
2023-08-14T05:46:53.504Z,2.20
2023-08-14T05:49:22.998Z,2.40
2023-08-14T05:51:50.904Z,2.17
2023-08-14T05:54:18.894Z,2.40
2023-08-14T05:56:47.230Z,2.23
2023-08-14T05:59:16.751Z,2.30
2023-08-14T06:01:45.176Z,2.27
2023-08-14T06:04:13.131Z,2.10
2023-08-14T06:06:41.077Z,2.10
2023-08-14T06:09:09.140Z,1.87
2023-08-14T06:11:37.114Z,2.30
2023-08-14T06:14:05.247Z,2.60
2023-08-14T06:16:34.590Z,1.97
2023-08-14T06:19:02.663Z,2.10
2023-08-14T06:21:30.693Z,1.77
2023-08-14T06:23:58.790Z,1.90
2023-08-14T06:26:27.196Z,2.47
2023-08-14T06:28:55.083Z,2.37
2023-08-14T06:31:23.101Z,2.10
2023-08-14T06:33:52.597Z,2.10
2023-08-14T06:36:20.969Z,2.37
2023-08-14T06:38:50.044Z,2.70
2023-08-14T06:41:18.681Z,2.33
2023-08-14T06:43:49.595Z,2.40
2023-08-14T06:46:19.951Z,2.27
2023-08-14T06:48:48.384Z,2.60
2023-08-14T06:51:17.752Z,2.63
2023-08-14T06:53:46.051Z,2.47
2023-08-14T06:56:14.028Z,3.17
2023-08-14T06:58:41.966Z,2.70
2023-08-14T07:01:09.992Z,2.40
2023-08-14T07:03:38.248Z,3.23
2023-08-14T07:06:06.464Z,3.33
2023-08-14T07:08:35.775Z,2.60
2023-08-14T07:11:03.716Z,3.53
2023-08-14T07:13:31.932Z,2.60
2023-08-14T07:16:00.155Z,2.43
2023-08-14T07:18:28.256Z,2.80
2023-08-14T07:20:58.083Z,3.23
2023-08-14T07:23:26.299Z,2.87
2023-08-14T07:25:58.495Z,3.20
2023-08-14T07:28:26.436Z,2.87
2023-08-14T07:30:54.456Z,4.90
2023-08-14T07:33:22.375Z,2.37
2023-08-14T07:35:50.350Z,2.93
2023-08-14T07:38:18.337Z,2.70
2023-08-14T07:40:46.265Z,3.00
2023-08-14T07:43:15.511Z,2.87
2023-08-14T07:45:44.820Z,3.63
2023-08-14T07:48:13.018Z,2.83
2023-08-14T07:50:40.951Z,3.40
2023-08-14T07:53:10.212Z,3.30
2023-08-14T07:55:38.608Z,3.87
2023-08-14T07:58:06.501Z,3.73
2023-08-14T08:00:36.449Z,4.97
2023-08-14T08:03:04.863Z,3.57
2023-08-14T08:05:33.120Z,3.90
2023-08-14T08:08:02.417Z,3.93
2023-08-14T08:10:30.473Z,4.40
2023-08-14T08:12:58.421Z,4.50
2023-08-14T08:15:26.503Z,3.90
2023-08-14T08:17:55.826Z,3.60
2023-08-14T08:20:23.832Z,3.50
2023-08-14T08:22:51.670Z,3.67
2023-08-14T08:25:20.179Z,4.03
2023-08-14T08:27:50.237Z,4.13
2023-08-14T08:30:18.236Z,3.50
2023-08-14T08:32:46.319Z,3.43
2023-08-14T08:35:15.632Z,4.70
2023-08-14T08:37:43.710Z,3.47
2023-08-14T08:40:12.370Z,4.03
2023-08-14T08:42:40.607Z,4.00
2023-08-14T08:45:11.395Z,3.63
2023-08-14T08:47:41.018Z,3.53
2023-08-14T08:50:10.723Z,4.20
2023-08-14T08:52:41.079Z,3.67
2023-08-14T08:55:10.290Z,4.10
2023-08-14T08:57:40.115Z,4.03
2023-08-14T09:00:09.234Z,4.07
2023-08-14T09:02:37.436Z,3.87
2023-08-14T09:05:06.328Z,3.80
2023-08-14T09:07:35.166Z,3.47
2023-08-14T09:10:05.266Z,3.37
2023-08-14T09:12:33.302Z,3.73
2023-08-14T09:15:06.719Z,3.23
2023-08-14T09:17:34.718Z,4.20
2023-08-14T09:20:12.154Z,3.73
2023-08-14T09:22:47.055Z,2.97
2023-08-14T09:25:17.203Z,3.30
2023-08-14T09:27:45.604Z,3.20
2023-08-14T09:30:15.237Z,3.43
2023-08-14T09:32:43.479Z,3.67
2023-08-14T09:35:11.500Z,3.07
2023-08-14T09:37:41.772Z,3.17
2023-08-14T09:40:12.180Z,3.13
2023-08-14T09:42:41.535Z,2.83
2023-08-14T09:45:10.253Z,3.30
2023-08-14T09:47:38.815Z,3.00
2023-08-14T09:50:08.800Z,2.83
2023-08-14T09:52:36.942Z,2.83
2023-08-14T09:55:11.535Z,2.90
2023-08-14T09:57:41.298Z,3.27
2023-08-14T10:00:12.145Z,3.57
2023-08-14T10:02:41.163Z,2.83
2023-08-14T10:05:11.573Z,3.00
2023-08-14T10:07:41.086Z,2.93
2023-08-14T10:10:10.096Z,3.20
2023-08-14T10:12:44.103Z,3.40
2023-08-14T10:15:15.000Z,3.17
2023-08-14T10:17:49.078Z,3.13
2023-08-14T10:20:19.521Z,3.80
2023-08-14T10:22:48.471Z,3.20
2023-08-14T10:25:17.209Z,3.10
2023-08-14T10:27:46.747Z,3.10
2023-08-14T10:30:15.560Z,2.80
2023-08-14T10:32:44.430Z,3.43
2023-08-14T10:35:12.973Z,4.20
2023-08-14T10:37:52.869Z,3.20
2023-08-14T10:40:28.671Z,3.03
2023-08-14T10:43:00.241Z,3.77
2023-08-14T10:45:29.833Z,3.13
2023-08-14T10:48:02.053Z,3.83
2023-08-14T10:50:31.458Z,3.00
2023-08-14T10:53:00.094Z,5.20
2023-08-14T10:55:39.333Z,3.57
2023-08-14T10:58:39.429Z,2.83
2023-08-14T11:01:09.085Z,3.07
2023-08-14T11:03:57.607Z,3.60
2023-08-14T11:06:26.771Z,3.70
2023-08-14T11:09:00.680Z,2.80
2023-08-14T11:11:29.063Z,2.83
2023-08-14T11:13:58.754Z,3.10
2023-08-14T11:16:27.402Z,2.93
2023-08-14T11:18:58.924Z,2.67
2023-08-14T11:21:32.132Z,2.80
2023-08-14T11:24:01.018Z,3.47
2023-08-14T11:26:31.257Z,3.57
2023-08-14T11:29:00.577Z,3.27
2023-08-14T11:31:34.459Z,2.73
2023-08-14T11:34:02.974Z,3.30
2023-08-14T11:39:01.887Z,3.13
2023-08-14T11:41:31.794Z,3.83
2023-08-14T11:44:01.783Z,3.20
2023-08-14T11:46:29.712Z,3.57
2023-08-14T11:48:57.761Z,3.00
2023-08-14T11:51:25.993Z,2.80
2023-08-14T11:53:54.273Z,2.77
2023-08-14T11:56:22.295Z,3.07
2023-08-14T11:58:59.883Z,3.10
2023-08-14T12:01:29.535Z,2.43
2023-08-14T12:03:57.548Z,2.93
2023-08-14T12:06:25.965Z,2.57
2023-08-14T12:08:54.345Z,2.53
2023-08-14T12:11:22.432Z,2.70
2023-08-14T12:13:51.663Z,2.63
2023-08-14T12:16:22.145Z,3.03
2023-08-14T12:18:52.146Z,3.13
2023-08-14T12:21:20.096Z,2.80
2023-08-14T12:23:49.413Z,2.87
2023-08-14T12:26:17.609Z,3.17
2023-08-14T12:28:45.599Z,2.53
2023-08-14T12:31:15.185Z,2.70
2023-08-14T12:33:45.248Z,2.80
2023-08-14T12:36:16.268Z,3.27
2023-08-14T12:38:44.157Z,3.40
2023-08-14T12:41:12.076Z,3.13
2023-08-14T12:43:41.172Z,3.17
2023-08-14T12:46:10.169Z,3.47
2023-08-14T12:48:38.335Z,3.33
2023-08-14T12:53:40.410Z,2.90
2023-08-14T12:56:08.754Z,3.13
2023-08-14T12:58:36.626Z,3.00
2023-08-14T13:01:05.987Z,3.37
2023-08-14T13:03:36.906Z,3.50
2023-08-14T13:06:07.852Z,3.53
2023-08-14T13:08:35.909Z,3.57
2023-08-14T13:11:05.162Z,3.03
2023-08-14T13:13:33.564Z,6.30
2023-08-14T13:16:02.474Z,3.30
2023-08-14T13:18:30.852Z,3.50
2023-08-14T13:20:59.336Z,2.80
2023-08-14T13:23:27.469Z,3.07
2023-08-14T13:25:55.583Z,3.80
2023-08-14T13:28:24.914Z,3.27
2023-08-14T13:30:53.335Z,2.87
2023-08-14T13:33:21.362Z,2.70
2023-08-14T13:35:49.316Z,3.17
2023-08-14T13:38:17.335Z,3.20
2023-08-14T13:40:45.266Z,2.90
2023-08-14T13:43:14.554Z,2.80
2023-08-14T13:45:44.484Z,3.10
2023-08-14T13:48:12.554Z,3.50
2023-08-14T13:50:43.003Z,3.40
2023-08-14T13:53:11.169Z,2.90
2023-08-14T13:55:43.317Z,3.30
2023-08-14T13:58:11.381Z,3.07
2023-08-14T14:00:39.343Z,2.73
2023-08-14T14:03:08.730Z,3.43
2023-08-14T14:05:36.725Z,2.93
2023-08-14T14:08:04.957Z,3.27
2023-08-14T14:10:32.998Z,2.83
2023-08-14T14:13:02.671Z,3.27
2023-08-14T14:15:31.550Z,3.40
2023-08-14T14:17:59.706Z,3.20
2023-08-14T14:20:29.089Z,3.20
2023-08-14T14:22:57.025Z,3.37
2023-08-14T14:25:25.178Z,3.87
2023-08-14T14:27:53.175Z,4.20
2023-08-14T14:30:21.198Z,3.40
2023-08-14T14:32:49.226Z,2.97
2023-08-14T14:35:17.519Z,3.17
2023-08-14T14:37:47.369Z,3.70
2023-08-14T14:40:15.487Z,3.40
2023-08-14T14:42:43.418Z,3.43
2023-08-14T14:45:20.596Z,3.13
2023-08-14T14:47:56.691Z,3.50
2023-08-14T14:50:29.704Z,3.57
2023-08-14T14:53:00.242Z,4.00
2023-08-14T14:55:29.236Z,3.33
2023-08-14T14:57:57.260Z,3.17
2023-08-14T15:00:27.187Z,4.13
2023-08-14T15:02:55.407Z,4.63
2023-08-14T15:07:54.287Z,3.67
2023-08-14T15:10:23.541Z,3.63
2023-08-14T15:12:51.531Z,3.53
2023-08-14T15:15:19.614Z,3.20
2023-08-14T15:17:48.976Z,3.50
2023-08-14T15:20:17.519Z,3.07
2023-08-14T15:22:45.452Z,3.50
2023-08-14T15:25:13.846Z,3.53
2023-08-14T15:27:43.212Z,3.13
2023-08-14T15:30:12.119Z,2.60
2023-08-14T15:32:40.585Z,5.23
2023-08-14T15:35:09.346Z,3.47
2023-08-14T15:37:37.705Z,3.50
2023-08-14T15:40:06.981Z,2.77
2023-08-14T15:42:35.011Z,3.37
2023-08-14T15:45:08.300Z,3.40
2023-08-14T15:47:36.880Z,3.30
2023-08-14T15:50:06.147Z,2.97
2023-08-14T15:52:34.226Z,3.50
2023-08-14T15:55:02.819Z,3.53
2023-08-14T15:57:31.257Z,2.77
2023-08-14T16:00:01.132Z,3.10
2023-08-14T16:02:30.463Z,3.80
2023-08-14T16:04:58.389Z,2.70
2023-08-14T16:07:27.425Z,3.30
2023-08-14T16:09:55.637Z,3.50
2023-08-14T16:12:23.646Z,3.23
2023-08-14T16:14:52.051Z,3.13
2023-08-14T16:17:20.221Z,3.37
2023-08-14T16:19:49.766Z,3.40
2023-08-14T16:22:17.720Z,3.20
2023-08-14T16:24:45.730Z,3.00
2023-08-14T16:27:14.331Z,3.30
2023-08-14T16:29:42.421Z,2.37
2023-08-14T16:32:10.354Z,3.50
2023-08-14T16:34:38.399Z,3.30
2023-08-14T16:37:07.729Z,2.70
2023-08-14T16:39:35.640Z,3.10
2023-08-14T16:42:03.599Z,3.50
2023-08-14T16:44:31.466Z,3.30
2023-08-14T16:46:59.361Z,3.10
2023-08-14T16:49:27.299Z,3.13
2023-08-14T16:51:55.207Z,2.73
2023-08-14T16:54:24.590Z,3.03
2023-08-14T16:56:52.525Z,3.57
2023-08-14T16:59:20.598Z,3.63
2023-08-14T17:01:48.586Z,2.67
2023-08-14T17:04:16.555Z,2.90
2023-08-14T17:06:44.462Z,3.07
2023-08-14T17:09:14.632Z,3.30
2023-08-14T17:11:44.355Z,3.70
2023-08-14T17:14:12.301Z,3.20
2023-08-14T17:16:40.310Z,3.03
2023-08-14T17:19:08.325Z,3.30
2023-08-14T17:21:36.275Z,3.20
2023-08-14T17:24:04.676Z,3.37
2023-08-14T17:26:32.620Z,2.97
2023-08-14T17:29:01.879Z,3.40
2023-08-14T17:31:30.485Z,3.33
2023-08-14T17:33:58.384Z,3.30
2023-08-14T17:36:26.299Z,3.27
2023-08-14T17:38:54.538Z,3.90
2023-08-14T17:41:22.484Z,2.90
2023-08-14T17:43:50.468Z,3.37
2023-08-14T17:46:20.639Z,4.00
2023-08-14T17:48:48.770Z,3.27
2023-08-14T17:51:16.785Z,3.43
2023-08-14T17:53:44.985Z,3.73
2023-08-14T17:56:13.252Z,3.63
2023-08-14T17:58:41.290Z,3.20
2023-08-14T18:01:09.349Z,3.37
2023-08-14T18:03:38.838Z,2.83
2023-08-14T18:06:06.924Z,3.47
2023-08-14T18:08:34.914Z,3.50
2023-08-14T18:11:03.567Z,3.67
2023-08-14T18:13:31.626Z,3.30
2023-08-14T18:16:01.186Z,4.43
2023-08-14T18:18:29.690Z,3.23
2023-08-14T18:20:59.109Z,4.10
2023-08-14T18:23:27.065Z,4.87
2023-08-14T18:25:56.311Z,4.00
2023-08-14T18:28:25.197Z,3.10
2023-08-14T18:30:53.471Z,3.37
2023-08-14T18:33:21.412Z,3.40
2023-08-14T18:35:49.275Z,3.40
2023-08-14T18:38:18.760Z,3.30
2023-08-14T18:40:47.066Z,4.40
2023-08-14T18:43:15.022Z,3.87
2023-08-14T18:45:45.178Z,3.30
2023-08-14T18:48:13.572Z,3.37
2023-08-14T18:50:41.553Z,3.63
2023-08-14T18:53:09.935Z,3.50
2023-08-14T18:55:40.479Z,3.70
2023-08-14T18:58:08.628Z,3.83
2023-08-14T19:00:37.002Z,3.03
2023-08-14T19:03:05.522Z,2.93
2023-08-14T19:05:33.525Z,3.30
2023-08-14T19:08:01.700Z,3.40
2023-08-14T19:10:29.634Z,3.73
2023-08-14T19:12:58.903Z,3.60
2023-08-14T19:15:27.473Z,3.40
2023-08-14T19:17:55.408Z,3.80
2023-08-14T19:20:23.433Z,3.50
2023-08-14T19:22:51.889Z,3.33
2023-08-14T19:25:20.080Z,3.83
2023-08-14T19:27:47.981Z,3.20
2023-08-14T19:30:17.377Z,3.20
2023-08-14T19:32:45.290Z,3.37
2023-08-14T19:35:13.290Z,3.47
2023-08-14T19:37:41.273Z,3.10
2023-08-14T19:40:11.834Z,3.40
2023-08-14T19:42:42.960Z,4.13
2023-08-14T19:45:12.070Z,3.53
2023-08-14T19:47:41.917Z,3.53
2023-08-14T19:50:10.261Z,3.03
2023-08-14T19:52:38.262Z,3.83
2023-08-14T19:55:07.007Z,2.80
2023-08-14T19:57:34.981Z,3.40
2023-08-14T20:00:04.427Z,4.00
2023-08-14T20:02:32.358Z,2.73
2023-08-14T20:05:02.086Z,3.70
2023-08-14T20:07:29.975Z,3.43
2023-08-14T20:09:57.887Z,3.70
2023-08-14T20:12:25.836Z,3.33
2023-08-14T20:14:53.798Z,3.43
2023-08-14T20:17:21.911Z,3.97
2023-08-14T20:19:50.351Z,3.77
2023-08-14T20:22:19.675Z,3.80
2023-08-14T20:24:49.376Z,3.73
2023-08-14T20:27:17.415Z,3.70
2023-08-14T20:29:45.638Z,3.70
2023-08-14T20:32:13.636Z,3.80
2023-08-14T20:34:41.599Z,4.10
2023-08-14T20:37:11.598Z,4.77
2023-08-14T20:39:41.638Z,5.00
2023-08-14T20:42:09.572Z,4.20
2023-08-14T20:44:37.535Z,5.10
2023-08-14T20:47:05.609Z,4.80
2023-08-14T20:49:33.628Z,4.17
2023-08-14T20:52:02.449Z,3.90
2023-08-14T20:54:30.416Z,4.30
2023-08-14T20:57:00.014Z,4.20
2023-08-14T20:59:27.982Z,4.43
2023-08-14T21:01:56.132Z,4.37
2023-08-14T21:04:24.180Z,4.27
2023-08-14T21:06:52.254Z,4.00
2023-08-14T21:09:20.263Z,4.50
2023-08-14T21:11:48.232Z,5.80
2023-08-14T21:14:17.546Z,4.80
2023-08-14T21:16:45.534Z,3.97
2023-08-14T21:19:13.989Z,4.87
2023-08-14T21:21:45.675Z,3.93
2023-08-14T21:24:13.660Z,3.83
2023-08-14T21:26:41.912Z,4.60
2023-08-14T21:29:09.832Z,4.20
2023-08-14T21:31:39.140Z,4.37
2023-08-14T21:34:07.410Z,4.13
2023-08-14T21:36:35.337Z,3.97
2023-08-14T21:39:03.296Z,4.23
2023-08-14T21:41:31.223Z,4.17
2023-08-14T21:43:59.285Z,4.80
2023-08-14T21:46:29.869Z,4.43
2023-08-14T21:48:59.168Z,4.23
2023-08-14T21:51:27.109Z,4.77
2023-08-14T21:53:54.993Z,3.93
2023-08-14T21:56:22.896Z,4.20
2023-08-14T21:58:50.877Z,4.37
2023-08-14T22:01:19.011Z,3.70
2023-08-14T22:03:46.908Z,4.80
2023-08-14T22:06:16.143Z,4.63
2023-08-14T22:08:44.032Z,4.43
2023-08-14T22:11:11.907Z,3.83
2023-08-14T22:13:39.802Z,3.03
2023-08-14T22:16:07.823Z,4.30
2023-08-14T22:18:35.751Z,4.00
2023-08-14T22:21:03.697Z,4.30
2023-08-14T22:23:34.674Z,4.07
2023-08-14T22:26:02.639Z,3.77
2023-08-14T22:28:30.629Z,4.30
2023-08-14T22:30:58.634Z,4.33
2023-08-14T22:33:26.966Z,4.13
2023-08-14T22:35:55.222Z,4.33
2023-08-14T22:38:23.450Z,3.90
2023-08-14T22:40:54.040Z,4.20
2023-08-14T22:43:22.031Z,4.07
2023-08-14T22:48:17.764Z,4.73
2023-08-14T22:50:46.568Z,3.70
2023-08-14T22:53:14.554Z,4.00
2023-08-14T22:55:42.508Z,4.00
2023-08-14T22:58:11.763Z,3.60
2023-08-14T23:00:39.913Z,3.73
2023-08-14T23:03:07.881Z,4.10
2023-08-14T23:05:35.918Z,3.60
2023-08-14T23:08:03.924Z,4.00
2023-08-14T23:10:32.051Z,4.33
2023-08-14T23:13:00.112Z,4.10
2023-08-14T23:15:29.495Z,4.50
2023-08-14T23:17:57.390Z,4.50
2023-08-14T23:20:25.479Z,4.37
2023-08-14T23:22:53.378Z,4.60
2023-08-14T23:25:21.353Z,4.40
2023-08-14T23:27:49.450Z,3.80
2023-08-14T23:30:17.450Z,4.50
2023-08-14T23:32:46.735Z,3.70
2023-08-14T23:35:14.735Z,4.23
2023-08-14T23:37:42.680Z,3.90
2023-08-14T23:40:12.835Z,4.50
2023-08-14T23:42:40.876Z,4.43
2023-08-14T23:45:09.371Z,4.10
2023-08-14T23:47:37.344Z,3.80
2023-08-14T23:50:07.702Z,4.60
2023-08-14T23:52:35.785Z,4.10
2023-08-14T23:55:03.745Z,4.57
2023-08-14T23:57:31.660Z,4.17
2023-08-14T23:59:59.634Z,4.17
